createdAt,value
2022-12-18T00:01:25.263Z,102348.47
2022-12-18T00:03:53.176Z,102361.09
2022-12-18T00:06:20.717Z,102357.56
2022-12-18T00:08:47.243Z,102350.50
2022-12-18T00:11:19.611Z,102352.22
2022-12-18T00:13:46.377Z,102357.56
2022-12-18T00:16:15.838Z,102346.81
2022-12-18T00:18:43.095Z,102352.22
2022-12-18T00:21:12.392Z,102357.31
2022-12-18T00:23:40.850Z,102352.22
2022-12-18T00:26:12.921Z,102354.69
2022-12-18T00:28:42.812Z,102353.81
2022-12-18T00:31:12.898Z,102344.59
2022-12-18T00:33:39.911Z,102338.53
2022-12-18T00:36:15.828Z,102335.00
2022-12-18T00:38:42.832Z,102334.13
2022-12-18T00:41:12.195Z,102327.69
2022-12-18T00:43:39.972Z,102327.94
2022-12-18T00:46:07.207Z,102334.69
2022-12-18T00:48:33.845Z,102332.13
2022-12-18T00:51:00.292Z,102332.91
2022-12-18T00:53:26.788Z,102331.00
2022-12-18T00:55:53.215Z,102327.50
2022-12-18T00:58:19.745Z,102318.75
2022-12-18T01:00:46.230Z,102321.97
2022-12-18T01:03:15.983Z,102314.91
2022-12-18T01:05:44.357Z,102321.53
2022-12-18T01:08:11.810Z,102304.19
2022-12-18T01:10:41.338Z,102310.16
2022-12-18T01:13:07.833Z,102307.63
2022-12-18T01:15:34.230Z,102303.44
2022-12-18T01:18:00.686Z,102303.44
2022-12-18T01:20:27.218Z,102302.09
2022-12-18T01:22:53.704Z,102297.34
2022-12-18T01:25:20.142Z,102298.53
2022-12-18T01:27:46.598Z,102306.59
2022-12-18T01:30:13.165Z,102301.06
2022-12-18T01:32:39.661Z,102304.03
2022-12-18T01:35:06.896Z,102301.81
2022-12-18T01:37:33.449Z,102306.44
2022-12-18T01:39:59.909Z,102300.06
2022-12-18T01:42:26.364Z,102286.53
2022-12-18T01:45:00.523Z,102283.22
2022-12-18T01:47:29.579Z,102290.63
2022-12-18T01:49:57.861Z,102285.84
2022-12-18T01:52:27.020Z,102286.91
2022-12-18T01:54:54.096Z,102287.16
2022-12-18T01:57:21.494Z,102282.25
2022-12-18T01:59:52.753Z,102287.47
2022-12-18T02:02:20.702Z,102283.25
2022-12-18T02:04:49.547Z,102275.63
2022-12-18T02:07:24.412Z,102276.50
2022-12-18T02:10:13.709Z,102273.06
2022-12-18T02:12:53.595Z,102265.78
2022-12-18T02:15:31.968Z,102267.00
2022-12-18T02:18:12.285Z,102269.34
2022-12-18T02:20:48.855Z,102269.69
2022-12-18T02:23:43.945Z,102283.59
2022-12-18T02:26:19.471Z,102290.22
2022-12-18T02:29:01.358Z,102295.31
2022-12-18T02:31:35.433Z,102296.13
2022-12-18T02:34:05.746Z,102300.34
2022-12-18T02:36:41.258Z,102307.84
2022-12-18T02:39:11.459Z,102310.19
2022-12-18T02:41:43.568Z,102307.66
2022-12-18T02:44:13.185Z,102315.72
2022-12-18T02:46:53.451Z,102308.34
2022-12-18T02:49:40.998Z,102306.38
2022-12-18T02:52:54.591Z,102309.88
2022-12-18T02:55:48.226Z,102305.34
2022-12-18T02:58:27.355Z,102311.97
2022-12-18T03:01:25.438Z,102321.97
2022-12-18T03:03:58.640Z,102320.19
2022-12-18T03:06:30.896Z,102317.97
2022-12-18T03:09:05.095Z,102321.72
2022-12-18T03:11:35.230Z,102319.97
2022-12-18T03:14:02.847Z,102313.13
2022-12-18T03:16:32.082Z,102306.16
2022-12-18T03:19:09.898Z,102316.44
2022-12-18T03:21:48.768Z,102302.28
2022-12-18T03:24:19.837Z,102309.38
2022-12-18T03:26:51.711Z,102301.09
2022-12-18T03:29:30.749Z,102308.94
2022-12-18T03:32:04.508Z,102299.31
2022-12-18T03:34:36.303Z,102284.31
2022-12-18T03:37:06.885Z,102289.59
2022-12-18T03:39:35.632Z,102280.88
2022-12-18T03:42:16.413Z,102272.56
2022-12-18T03:45:10.691Z,102271.81
2022-12-18T03:48:02.439Z,102273.13
2022-12-18T03:50:39.283Z,102265.31
2022-12-18T03:53:15.748Z,102259.22
2022-12-18T03:55:46.342Z,102255.81
2022-12-18T03:58:18.507Z,102263.31
2022-12-18T04:00:58.780Z,102253.06
2022-12-18T04:03:26.936Z,102271.72
2022-12-18T04:05:56.246Z,102259.78
2022-12-18T04:08:24.817Z,102256.38
2022-12-18T04:11:00.696Z,102251.28
2022-12-18T04:13:34.890Z,102240.81
2022-12-18T04:16:03.676Z,102240.69
2022-12-18T04:18:30.735Z,102235.78
2022-12-18T04:20:57.794Z,102235.78
2022-12-18T04:23:25.063Z,102237.81
2022-12-18T04:25:52.114Z,102238.00
2022-12-18T04:28:31.197Z,102238.13
2022-12-18T04:30:57.990Z,102231.50
2022-12-18T04:33:24.547Z,102233.34
2022-12-18T04:35:51.103Z,102223.44
2022-12-18T04:38:17.844Z,102218.78
2022-12-18T04:40:45.363Z,102202.94
2022-12-18T04:43:20.706Z,102196.84
2022-12-18T04:45:47.179Z,102197.25
2022-12-18T04:48:13.589Z,102194.25
2022-12-18T04:50:40.089Z,102185.50
2022-12-18T04:53:07.449Z,102189.22
2022-12-18T04:55:33.941Z,102196.28
2022-12-18T04:58:00.341Z,102195.03
2022-12-18T05:00:26.931Z,102184.38
2022-12-18T05:02:54.138Z,102180.28
2022-12-18T05:05:20.682Z,102178.94
2022-12-18T05:07:47.136Z,102185.09
2022-12-18T05:10:13.584Z,102181.91
2022-12-18T05:12:40.049Z,102179.75
2022-12-18T05:15:07.224Z,102179.94
2022-12-18T05:17:33.635Z,102174.97
2022-12-18T05:20:00.107Z,102166.75
2022-12-18T05:22:26.536Z,102165.31
2022-12-18T05:24:52.986Z,102152.75
2022-12-18T05:27:19.447Z,102129.19
2022-12-18T05:29:45.920Z,102115.75
2022-12-18T05:32:12.364Z,102109.88
2022-12-18T05:34:38.783Z,102104.19
2022-12-18T05:37:05.251Z,102088.16
2022-12-18T05:39:31.684Z,102088.34
2022-12-18T05:41:58.201Z,102089.31
2022-12-18T05:44:24.782Z,102077.56
2022-12-18T05:46:51.263Z,102070.03
2022-12-18T05:49:17.698Z,102071.88
2022-12-18T05:51:44.128Z,102063.47
2022-12-18T05:54:10.534Z,102056.81
2022-12-18T05:56:36.952Z,102057.69
2022-12-18T05:59:03.788Z,102058.66
2022-12-18T06:01:30.374Z,102054.56
2022-12-18T06:03:57.599Z,102059.75
2022-12-18T06:06:26.885Z,102062.41
2022-12-18T06:08:54.535Z,102068.34
2022-12-18T06:11:27.051Z,102067.56
2022-12-18T06:13:58.567Z,102054.44
2022-12-18T06:16:25.224Z,102057.38
2022-12-18T06:18:51.641Z,102043.88
2022-12-18T06:21:18.214Z,102040.53
2022-12-18T06:23:44.652Z,102035.44
2022-12-18T06:26:13.028Z,102048.06
2022-12-18T06:28:39.638Z,102041.41
2022-12-18T06:31:07.316Z,102051.00
2022-12-18T06:33:35.015Z,102051.88
2022-12-18T06:36:04.092Z,102047.41
2022-12-18T06:38:31.809Z,102040.31
2022-12-18T06:40:58.276Z,102046.41
2022-12-18T06:43:24.987Z,102042.34
2022-12-18T06:45:51.476Z,102038.16
2022-12-18T06:48:17.968Z,102047.66
2022-12-18T06:50:44.420Z,102051.97
2022-12-18T06:53:10.850Z,102043.63
2022-12-18T06:55:37.317Z,102042.06
2022-12-18T06:58:04.433Z,102039.78
2022-12-18T07:00:30.957Z,102050.84
2022-12-18T07:02:57.407Z,102047.59
2022-12-18T07:05:23.898Z,102029.75
2022-12-18T07:07:50.363Z,102040.31
2022-12-18T07:10:16.941Z,102032.41
2022-12-18T07:12:43.400Z,102043.19
2022-12-18T07:15:10.279Z,102041.56
2022-12-18T07:17:36.699Z,102044.22
2022-12-18T07:20:03.362Z,102039.22
2022-12-18T07:22:29.841Z,102039.34
2022-12-18T07:24:56.372Z,102030.00
2022-12-18T07:27:23.541Z,102033.53
2022-12-18T07:29:50.062Z,102035.28
2022-12-18T07:32:16.764Z,102043.91
2022-12-18T07:34:43.290Z,102037.06
2022-12-18T07:37:09.720Z,102036.28
2022-12-18T07:39:36.194Z,102030.34
2022-12-18T07:42:02.611Z,102022.81
2022-12-18T07:44:29.104Z,102021.13
2022-12-18T07:46:55.562Z,102006.72
2022-12-18T07:49:22.007Z,101997.41
2022-12-18T07:51:48.416Z,101986.44
2022-12-18T07:54:14.897Z,101978.00
2022-12-18T07:56:41.347Z,101965.31
2022-12-18T07:59:07.990Z,101955.13
2022-12-18T08:01:34.923Z,101961.09
2022-12-18T08:04:01.477Z,101967.19
2022-12-18T08:06:27.886Z,101978.34
2022-12-18T08:08:55.480Z,101975.88
2022-12-18T08:11:23.618Z,101965.88
2022-12-18T08:13:50.105Z,101963.41
2022-12-18T08:16:16.842Z,101962.59
2022-12-18T08:18:43.441Z,101963.59
2022-12-18T08:21:11.751Z,101966.13
2022-12-18T08:23:42.585Z,101966.41
2022-12-18T08:26:10.465Z,101981.00
2022-12-18T08:28:36.993Z,101972.63
2022-12-18T08:31:03.652Z,101974.31
2022-12-18T08:33:30.394Z,101978.72
2022-12-18T08:35:56.907Z,101979.75
2022-12-18T08:38:23.328Z,101971.31
2022-12-18T08:40:49.780Z,101968.97
2022-12-18T08:43:16.231Z,101969.91
2022-12-18T08:45:42.740Z,101980.31
2022-12-18T08:48:09.185Z,101967.72
2022-12-18T08:50:35.684Z,101964.47
2022-12-18T08:53:02.121Z,101953.53
2022-12-18T08:55:28.578Z,101958.75
2022-12-18T08:57:54.996Z,101948.72
2022-12-18T09:00:21.494Z,101954.75
2022-12-18T09:02:48.086Z,101966.03
2022-12-18T09:05:15.038Z,101967.00
2022-12-18T09:07:41.466Z,101967.97
2022-12-18T09:10:08.267Z,101983.63
2022-12-18T09:12:34.715Z,101973.41
2022-12-18T09:15:01.175Z,101978.69
2022-12-18T09:17:27.605Z,101979.66
2022-12-18T09:19:54.091Z,101970.41
2022-12-18T09:22:20.516Z,101971.44
2022-12-18T09:24:46.955Z,101968.22
2022-12-18T09:27:13.382Z,101966.69
2022-12-18T09:29:39.913Z,101971.09
2022-12-18T09:32:06.369Z,101958.41
2022-12-18T09:34:32.878Z,101957.69
2022-12-18T09:36:59.328Z,101946.75
2022-12-18T09:39:25.760Z,101939.91
2022-12-18T09:41:55.539Z,101958.03
2022-12-18T09:44:33.701Z,101943.59
2022-12-18T09:47:15.696Z,101950.63
2022-12-18T09:49:47.897Z,101948.16
2022-12-18T09:52:26.180Z,101947.50
2022-12-18T09:55:01.805Z,101934.06
2022-12-18T09:57:34.220Z,101929.09
2022-12-18T10:00:12.415Z,101921.97
2022-12-18T10:02:38.987Z,101939.63
2022-12-18T10:05:08.495Z,101932.84
2022-12-18T10:08:00.155Z,101940.75
2022-12-18T10:10:49.608Z,101942.59
2022-12-18T10:13:47.604Z,101954.72
2022-12-18T10:16:20.363Z,101949.81
2022-12-18T10:19:05.239Z,101955.06
2022-12-18T10:22:13.144Z,101937.34
2022-12-18T10:25:07.705Z,101941.81
2022-12-18T10:27:34.428Z,101924.06
2022-12-18T10:30:09.977Z,101897.41
2022-12-18T10:32:36.447Z,101915.84
2022-12-18T10:35:02.886Z,101903.94
2022-12-18T10:37:30.701Z,101884.31
2022-12-18T10:40:22.022Z,101888.16
2022-12-18T10:43:12.743Z,101860.81
2022-12-18T10:45:39.455Z,101856.19
2022-12-18T10:48:18.170Z,101855.44
2022-12-18T10:51:10.486Z,101851.13
2022-12-18T10:53:37.625Z,101845.41
2022-12-18T10:56:06.224Z,101842.41
2022-12-18T10:58:38.334Z,101850.25
2022-12-18T11:01:17.115Z,101850.38
2022-12-18T11:03:46.224Z,101841.78
2022-12-18T11:06:19.784Z,101837.00
2022-12-18T11:09:00.019Z,101841.50
2022-12-18T11:11:26.739Z,101836.59
2022-12-18T11:13:58.575Z,101813.28
2022-12-18T11:16:25.287Z,101819.03
2022-12-18T11:18:51.898Z,101817.53
2022-12-18T11:21:18.472Z,101809.06
2022-12-18T11:23:51.510Z,101796.91
2022-12-18T11:26:18.393Z,101798.06
2022-12-18T11:29:09.427Z,101793.53
2022-12-18T11:31:35.949Z,101797.19
2022-12-18T11:34:28.593Z,101776.38
2022-12-18T11:36:58.533Z,101786.06
2022-12-18T11:39:38.592Z,101781.03
2022-12-18T11:42:46.337Z,101775.13
2022-12-18T11:45:13.049Z,101770.00
2022-12-18T11:47:53.239Z,101766.50
2022-12-18T11:50:24.999Z,101752.69
2022-12-18T11:52:56.552Z,101753.00
2022-12-18T11:55:31.146Z,101720.31
2022-12-18T11:58:09.941Z,101730.97
2022-12-18T12:00:48.178Z,101698.38
2022-12-18T12:03:20.369Z,101702.19
2022-12-18T12:05:54.193Z,101697.19
2022-12-18T12:08:42.882Z,101683.59
2022-12-18T12:11:21.841Z,101652.63
2022-12-18T12:14:06.161Z,101662.97
2022-12-18T12:16:44.219Z,101650.34
2022-12-18T12:19:28.832Z,101641.84
2022-12-18T12:22:11.796Z,101635.78
2022-12-18T12:24:57.010Z,101635.78
2022-12-18T12:27:49.158Z,101627.03
2022-12-18T12:30:36.069Z,101644.25
2022-12-18T12:33:17.815Z,101623.94
2022-12-18T12:35:53.297Z,101617.19
2022-12-18T12:38:28.057Z,101623.34
2022-12-18T12:41:06.397Z,101625.13
2022-12-18T12:43:50.815Z,101624.34
2022-12-18T12:46:21.236Z,101624.06
2022-12-18T12:48:52.934Z,101633.66
2022-12-18T12:51:35.518Z,101625.09
2022-12-18T12:54:06.177Z,101604.34
2022-12-18T12:56:49.472Z,101613.09
2022-12-18T13:00:01.617Z,101604.41
2022-12-18T13:02:31.196Z,101596.72
2022-12-18T13:05:13.131Z,101597.56
2022-12-18T13:07:59.304Z,101578.78
2022-12-18T13:10:27.923Z,101571.22
2022-12-18T13:13:17.164Z,101580.50
2022-12-18T13:16:10.347Z,101577.94
2022-12-18T13:18:38.385Z,101567.78
2022-12-18T13:21:23.663Z,101542.72
2022-12-18T13:23:50.740Z,101546.25
2022-12-18T13:26:17.084Z,101535.22
2022-12-18T13:28:46.223Z,101518.09
2022-12-18T13:31:14.169Z,101502.63
2022-12-18T13:34:23.908Z,101512.03
2022-12-18T13:36:34.332Z,101485.66
2022-12-18T13:39:26.538Z,101480.41
2022-12-18T13:42:05.495Z,101488.22
2022-12-18T13:44:40.641Z,101470.84
2022-12-18T13:47:37.218Z,101482.19
2022-12-18T13:50:40.070Z,101473.41
2022-12-18T13:53:06.560Z,101480.41
2022-12-18T13:55:33.206Z,101484.59
2022-12-18T13:58:13.275Z,101485.34
2022-12-18T14:00:44.095Z,101485.34
2022-12-18T14:03:22.408Z,101469.66
2022-12-18T14:06:06.748Z,101477.47
2022-12-18T14:08:38.912Z,101474.91
2022-12-18T14:11:07.479Z,101465.09
2022-12-18T14:13:42.085Z,101466.16
2022-12-18T14:16:14.963Z,101466.97
2022-12-18T14:18:53.718Z,101460.94
2022-12-18T14:21:29.173Z,101455.66
2022-12-18T14:24:21.688Z,101449.56
2022-12-18T14:26:50.634Z,101447.81
2022-12-18T14:29:31.357Z,101454.53
2022-12-18T14:32:17.903Z,101446.75
2022-12-18T14:34:52.742Z,101442.38
2022-12-18T14:37:23.796Z,101437.22
2022-12-18T14:40:03.191Z,101436.34
2022-12-18T14:42:33.698Z,101429.31
2022-12-18T14:45:40.923Z,101430.19
2022-12-18T14:48:19.689Z,101415.66
2022-12-18T14:50:59.344Z,101410.50
2022-12-18T14:53:59.212Z,101413.88
2022-12-18T14:56:36.997Z,101418.19
2022-12-18T14:59:25.107Z,101413.00
2022-12-18T15:02:24.095Z,101424.28
2022-12-18T15:05:18.850Z,101411.31
2022-12-18T15:07:51.234Z,101415.47
2022-12-18T15:10:21.027Z,101420.72
2022-12-18T15:12:58.253Z,101424.34
2022-12-18T15:15:33.806Z,101425.22
2022-12-18T15:18:09.058Z,101421.78
2022-12-18T15:20:50.836Z,101403.91
2022-12-18T15:23:22.225Z,101398.78
2022-12-18T15:26:09.888Z,101392.78
2022-12-18T15:28:46.139Z,101383.13
2022-12-18T15:31:12.610Z,101380.88
2022-12-18T15:33:44.813Z,101365.22
2022-12-18T15:36:14.452Z,101362.75
2022-12-18T15:38:41.271Z,101363.00
2022-12-18T15:41:14.568Z,101352.78
2022-12-18T15:43:41.909Z,101348.59
2022-12-18T15:46:17.021Z,101344.28
2022-12-18T15:48:54.402Z,101333.84
2022-12-18T15:51:36.202Z,101346.88
2022-12-18T15:54:05.637Z,101331.25
2022-12-18T15:56:32.735Z,101332.44
2022-12-18T15:59:00.646Z,101328.19
2022-12-18T16:01:30.620Z,101318.03
2022-12-18T16:03:58.099Z,101311.22
2022-12-18T16:06:24.644Z,101299.31
2022-12-18T16:08:51.133Z,101297.66
2022-12-18T16:11:28.156Z,101294.28
2022-12-18T16:13:54.603Z,101278.81
2022-12-18T16:16:21.035Z,101277.22
2022-12-18T16:18:47.520Z,101278.97
2022-12-18T16:21:13.997Z,101271.31
2022-12-18T16:23:40.792Z,101267.88
2022-12-18T16:26:08.787Z,101272.25
2022-12-18T16:28:35.283Z,101280.00
2022-12-18T16:31:01.808Z,101275.75
2022-12-18T16:33:28.266Z,101268.13
2022-12-18T16:35:54.686Z,101264.69
2022-12-18T16:38:21.111Z,101266.50
2022-12-18T16:40:47.561Z,101259.72
2022-12-18T16:43:14.046Z,101252.97
2022-12-18T16:45:41.663Z,101252.97
2022-12-18T16:48:08.115Z,101254.75
2022-12-18T16:50:37.714Z,101230.81
2022-12-18T16:53:04.158Z,101239.50
2022-12-18T16:55:30.562Z,101226.81
2022-12-18T16:57:57.031Z,101231.97
2022-12-18T17:00:23.466Z,101223.44
2022-12-18T17:02:50.112Z,101211.66
2022-12-18T17:05:16.775Z,101215.03
2022-12-18T17:07:43.216Z,101203.13
2022-12-18T17:10:09.902Z,101207.50
2022-12-18T17:12:36.563Z,101222.06
2022-12-18T17:15:03.163Z,101205.03
2022-12-18T17:17:29.579Z,101193.09
2022-12-18T17:19:56.033Z,101194.00
2022-12-18T17:22:22.553Z,101191.47
2022-12-18T17:24:49.023Z,101182.09
2022-12-18T17:27:15.577Z,101189.91
2022-12-18T17:29:47.407Z,101181.28
2022-12-18T17:32:14.717Z,101183.91
2022-12-18T17:34:41.219Z,101180.53
2022-12-18T17:37:08.046Z,101173.78
2022-12-18T17:39:34.484Z,101177.28
2022-12-18T17:42:01.055Z,101173.91
2022-12-18T17:44:27.480Z,101172.25
2022-12-18T17:46:54.020Z,101156.69
2022-12-18T17:49:21.065Z,101162.09
2022-12-18T17:51:47.607Z,101156.25
2022-12-18T17:54:14.121Z,101146.88
2022-12-18T17:56:40.588Z,101167.56
2022-12-18T17:59:07.608Z,101162.47
2022-12-18T18:01:36.436Z,101153.00
2022-12-18T18:04:05.333Z,101163.41
2022-12-18T18:06:31.831Z,101158.28
2022-12-18T18:09:00.972Z,101154.91
2022-12-18T18:11:27.714Z,101143.88
2022-12-18T18:13:54.442Z,101138.84
2022-12-18T18:16:20.895Z,101144.91
2022-12-18T18:18:47.413Z,101139.88
2022-12-18T18:21:13.827Z,101146.81
2022-12-18T18:23:42.899Z,101129.03
2022-12-18T18:26:11.613Z,101132.56
2022-12-18T18:28:38.155Z,101119.81
2022-12-18T18:31:06.201Z,101119.16
2022-12-18T18:33:33.527Z,101124.47
2022-12-18T18:36:00.441Z,101103.94
2022-12-18T18:38:27.281Z,101110.91
2022-12-18T18:41:04.709Z,101107.50
2022-12-18T18:43:31.469Z,101113.69
2022-12-18T18:46:03.316Z,101104.25
2022-12-18T18:48:33.811Z,101087.91
2022-12-18T18:51:07.305Z,101072.66
2022-12-18T18:53:38.838Z,101080.59
2022-12-18T18:56:45.507Z,101077.16
2022-12-18T18:58:55.984Z,101082.50
2022-12-18T19:01:23.477Z,101074.81
2022-12-18T19:03:50.907Z,101079.94
2022-12-18T19:06:20.214Z,101080.97
2022-12-18T19:08:47.733Z,101079.28
2022-12-18T19:11:14.798Z,101069.16
2022-12-18T19:13:41.588Z,101065.75
2022-12-18T19:16:09.299Z,101069.19
2022-12-18T19:18:36.844Z,101060.66
2022-12-18T19:21:05.718Z,101062.41
2022-12-18T19:23:34.093Z,101045.28
2022-12-18T19:26:26.898Z,101048.84
2022-12-18T19:28:51.404Z,101048.03
2022-12-18T19:31:24.181Z,101028.44
2022-12-18T19:33:51.982Z,101031.97
2022-12-18T19:36:21.371Z,101015.78
2022-12-18T19:38:49.798Z,101016.66
2022-12-18T19:41:17.063Z,101017.59
2022-12-18T19:43:45.898Z,100998.00
2022-12-18T19:46:16.913Z,100996.34
2022-12-18T19:48:44.770Z,100984.47
2022-12-18T19:51:17.527Z,100969.81
2022-12-18T19:53:44.667Z,100972.66
2022-12-18T19:56:14.894Z,100964.84
2022-12-18T19:58:41.685Z,100960.78
2022-12-18T20:01:16.811Z,100957.47
2022-12-18T20:03:48.031Z,100953.25
2022-12-18T20:06:30.490Z,100957.63
2022-12-18T20:09:00.739Z,100953.41
2022-12-18T20:11:29.020Z,100936.31
2022-12-18T20:13:55.574Z,100938.22
2022-12-18T20:16:23.549Z,100950.28
2022-12-18T20:18:50.007Z,100947.03
2022-12-18T20:21:20.349Z,100953.13
2022-12-18T20:23:46.819Z,100954.13
2022-12-18T20:26:15.350Z,100952.47
2022-12-18T20:28:41.812Z,100939.69
2022-12-18T20:31:10.380Z,100940.69
2022-12-18T20:33:40.379Z,100940.81
2022-12-18T20:36:10.405Z,100943.50
2022-12-18T20:38:37.199Z,100936.63
2022-12-18T20:41:07.614Z,100943.66
2022-12-18T20:43:34.363Z,100934.31
2022-12-18T20:46:02.869Z,100947.19
2022-12-18T20:48:30.109Z,100943.88
2022-12-18T20:51:17.677Z,100925.97
2022-12-18T20:53:45.857Z,100922.63
2022-12-18T20:56:20.111Z,100908.09
2022-12-18T20:58:51.302Z,100897.94
2022-12-18T21:01:22.730Z,100898.00
2022-12-18T21:03:50.026Z,100887.78
2022-12-18T21:06:19.833Z,100892.13
2022-12-18T21:08:46.433Z,100896.56
2022-12-18T21:11:21.982Z,100898.34
2022-12-18T21:13:49.019Z,100890.69
2022-12-18T21:16:15.540Z,100889.91
2022-12-18T21:18:42.535Z,100891.66
2022-12-18T21:21:08.990Z,100876.25
2022-12-18T21:23:35.533Z,100869.53
2022-12-18T21:26:34.547Z,100865.31
2022-12-18T21:29:03.894Z,100864.44
2022-12-18T21:31:34.184Z,100865.31
2022-12-18T21:34:02.447Z,100874.78
2022-12-18T21:36:29.967Z,100861.13
2022-12-18T21:38:57.315Z,100857.84
2022-12-18T21:41:25.479Z,100857.88
2022-12-18T21:43:52.140Z,100851.88
2022-12-18T21:46:18.679Z,100844.25
2022-12-18T21:48:45.189Z,100847.72
2022-12-18T21:51:11.633Z,100836.59
2022-12-18T21:53:38.102Z,100828.16
2022-12-18T21:56:04.716Z,100823.91
2022-12-18T21:58:31.216Z,100820.56
2022-12-18T22:00:57.761Z,100812.00
2022-12-18T22:03:24.363Z,100828.38
2022-12-18T22:06:08.880Z,100817.34
2022-12-18T22:08:36.024Z,100819.97
2022-12-18T22:11:06.923Z,100815.78
2022-12-18T22:13:33.345Z,100815.03
2022-12-18T22:15:59.873Z,100795.44
2022-12-18T22:18:26.309Z,100792.06
2022-12-18T22:21:04.525Z,100793.78
2022-12-18T22:23:31.189Z,100814.53
2022-12-18T22:25:58.053Z,100803.47
2022-12-18T22:28:24.552Z,100790.69
2022-12-18T22:30:51.946Z,100803.66
2022-12-18T22:33:25.481Z,100810.63
2022-12-18T22:35:51.874Z,100808.13
2022-12-18T22:38:18.305Z,100795.31
2022-12-18T22:40:44.742Z,100785.09
2022-12-18T22:43:11.178Z,100792.91
2022-12-18T22:45:38.356Z,100805.81
2022-12-18T22:48:05.667Z,100780.19
2022-12-18T22:50:32.101Z,100791.38
2022-12-18T22:52:58.525Z,100796.59
2022-12-18T22:55:24.954Z,100800.94
2022-12-18T22:57:51.398Z,100782.16
2022-12-18T23:00:19.870Z,100777.06
2022-12-18T23:02:55.803Z,100787.41
2022-12-18T23:05:26.107Z,100788.34
2022-12-18T23:07:52.535Z,100766.06
2022-12-18T23:10:19.011Z,100769.53
2022-12-18T23:12:45.410Z,100773.91
2022-12-18T23:15:12.212Z,100776.56
2022-12-18T23:17:39.735Z,100768.03
2022-12-18T23:20:06.540Z,100760.38
2022-12-18T23:22:32.997Z,100763.84
2022-12-18T23:24:59.445Z,100756.19
2022-12-18T23:27:25.855Z,100747.66
2022-12-18T23:29:52.328Z,100739.09
2022-12-18T23:32:20.218Z,100728.81
2022-12-18T23:34:46.655Z,100730.59
2022-12-18T23:37:18.229Z,100728.03
2022-12-18T23:39:51.497Z,100729.78
2022-12-18T23:42:17.929Z,100724.66
2022-12-18T23:44:45.246Z,100726.44
2022-12-18T23:47:11.643Z,100730.78
2022-12-18T23:49:38.122Z,100730.78
2022-12-18T23:52:07.782Z,100720.53
2022-12-18T23:54:34.233Z,100714.56
2022-12-18T23:57:00.889Z,100715.44
2022-12-18T23:59:27.343Z,100718.91
